sensor_id;sensor_type;location;lat;lon;timestamp;P1;durP1;ratioP1;P2;durP2;ratioP2
65162;SDS011;51751;55.714;37.436;2022-12-29T00:00:50;3.50;;;1.20;;
65162;SDS011;51751;55.714;37.436;2022-12-29T00:03:35;2.47;;;0.95;;
65162;SDS011;51751;55.714;37.436;2022-12-29T00:06:22;3.30;;;1.00;;
65162;SDS011;51751;55.714;37.436;2022-12-29T00:08:48;4.00;;;1.20;;
65162;SDS011;51751;55.714;37.436;2022-12-29T00:11:15;2.78;;;0.82;;
65162;SDS011;51751;55.714;37.436;2022-12-29T00:13:45;3.03;;;1.00;;
65162;SDS011;51751;55.714;37.436;2022-12-29T00:16:33;6.63;;;1.27;;
65162;SDS011;51751;55.714;37.436;2022-12-29T00:18:59;3.92;;;0.90;;
65162;SDS011;51751;55.714;37.436;2022-12-29T00:21:28;4.40;;;1.10;;
65162;SDS011;51751;55.714;37.436;2022-12-29T00:24:14;5.13;;;1.15;;
65162;SDS011;51751;55.714;37.436;2022-12-29T00:30:09;2.50;;;1.00;;
65162;SDS011;51751;55.714;37.436;2022-12-29T00:33:11;3.22;;;1.23;;
65162;SDS011;51751;55.714;37.436;2022-12-29T00:36:01;3.67;;;1.05;;
65162;SDS011;51751;55.714;37.436;2022-12-29T00:38:29;3.60;;;1.08;;
65162;SDS011;51751;55.714;37.436;2022-12-29T00:41:15;5.30;;;1.17;;
65162;SDS011;51751;55.714;37.436;2022-12-29T00:44:00;2.00;;;0.98;;
65162;SDS011;51751;55.714;37.436;2022-12-29T00:46:36;5.32;;;1.27;;
65162;SDS011;51751;55.714;37.436;2022-12-29T00:49:07;3.50;;;1.25;;
65162;SDS011;51751;55.714;37.436;2022-12-29T00:51:52;3.35;;;1.33;;
65162;SDS011;51751;55.714;37.436;2022-12-29T00:54:19;3.50;;;1.25;;
65162;SDS011;51751;55.714;37.436;2022-12-29T00:56:46;4.90;;;1.30;;
65162;SDS011;51751;55.714;37.436;2022-12-29T00:59:13;6.22;;;1.55;;
65162;SDS011;51751;55.714;37.436;2022-12-29T01:04:35;4.18;;;1.10;;
65162;SDS011;51751;55.714;37.436;2022-12-29T01:07:01;4.68;;;1.90;;
65162;SDS011;51751;55.714;37.436;2022-12-29T01:09:27;3.08;;;1.27;;
65162;SDS011;51751;55.714;37.436;2022-12-29T01:12:33;5.87;;;1.40;;
65162;SDS011;51751;55.714;37.436;2022-12-29T01:15:08;3.58;;;1.20;;
65162;SDS011;51751;55.714;37.436;2022-12-29T01:17:55;4.97;;;1.35;;
65162;SDS011;51751;55.714;37.436;2022-12-29T01:20:24;2.53;;;1.13;;
65162;SDS011;51751;55.714;37.436;2022-12-29T01:23:09;1.25;;;0.65;;
65162;SDS011;51751;55.714;37.436;2022-12-29T01:25:37;3.80;;;0.93;;
65162;SDS011;51751;55.714;37.436;2022-12-29T01:28:03;5.57;;;1.40;;
65162;SDS011;51751;55.714;37.436;2022-12-29T01:30:29;4.35;;;1.35;;
65162;SDS011;51751;55.714;37.436;2022-12-29T01:33:04;4.72;;;1.75;;
65162;SDS011;51751;55.714;37.436;2022-12-29T01:35:30;4.25;;;1.27;;
65162;SDS011;51751;55.714;37.436;2022-12-29T01:38:15;4.60;;;1.58;;
65162;SDS011;51751;55.714;37.436;2022-12-29T01:41:18;5.38;;;1.25;;
65162;SDS011;51751;55.714;37.436;2022-12-29T01:43:45;5.75;;;1.40;;
65162;SDS011;51751;55.714;37.436;2022-12-29T01:51:54;5.43;;;1.27;;
65162;SDS011;51751;55.714;37.436;2022-12-29T01:54:30;2.33;;;1.25;;
65162;SDS011;51751;55.714;37.436;2022-12-29T01:59:53;3.22;;;1.30;;
65162;SDS011;51751;55.714;37.436;2022-12-29T02:02:22;2.65;;;1.20;;
65162;SDS011;51751;55.714;37.436;2022-12-29T02:05:16;6.90;;;1.38;;
65162;SDS011;51751;55.714;37.436;2022-12-29T02:07:50;3.25;;;1.13;;
65162;SDS011;51751;55.714;37.436;2022-12-29T02:10:35;7.22;;;1.50;;
65162;SDS011;51751;55.714;37.436;2022-12-29T02:13:01;7.78;;;1.40;;
65162;SDS011;51751;55.714;37.436;2022-12-29T02:16:14;3.85;;;1.20;;
65162;SDS011;51751;55.714;37.436;2022-12-29T02:19:11;5.43;;;1.25;;
65162;SDS011;51751;55.714;37.436;2022-12-29T02:21:50;7.80;;;1.50;;
65162;SDS011;51751;55.714;37.436;2022-12-29T02:27:53;6.35;;;1.55;;
65162;SDS011;51751;55.714;37.436;2022-12-29T02:36:05;8.32;;;1.58;;
65162;SDS011;51751;55.714;37.436;2022-12-29T02:44:38;3.38;;;1.40;;
65162;SDS011;51751;55.714;37.436;2022-12-29T02:50:01;6.40;;;1.58;;
65162;SDS011;51751;55.714;37.436;2022-12-29T02:52:49;5.03;;;1.50;;
65162;SDS011;51751;55.714;37.436;2022-12-29T02:57:44;3.60;;;1.02;;
65162;SDS011;51751;55.714;37.436;2022-12-29T03:00:12;4.03;;;1.20;;
65162;SDS011;51751;55.714;37.436;2022-12-29T03:11:20;6.20;;;1.40;;
65162;SDS011;51751;55.714;37.436;2022-12-29T03:14:15;4.32;;;1.30;;
65162;SDS011;51751;55.714;37.436;2022-12-29T03:17:08;3.22;;;1.50;;
65162;SDS011;51751;55.714;37.436;2022-12-29T03:19:40;5.13;;;1.60;;
65162;SDS011;51751;55.714;37.436;2022-12-29T03:22:15;5.80;;;1.38;;
65162;SDS011;51751;55.714;37.436;2022-12-29T03:25:08;3.67;;;1.23;;
65162;SDS011;51751;55.714;37.436;2022-12-29T03:27:43;5.22;;;1.05;;
65162;SDS011;51751;55.714;37.436;2022-12-29T03:30:30;6.72;;;1.77;;
65162;SDS011;51751;55.714;37.436;2022-12-29T03:32:59;6.22;;;1.70;;
65162;SDS011;51751;55.714;37.436;2022-12-29T03:35:30;6.22;;;1.20;;
65162;SDS011;51751;55.714;37.436;2022-12-29T03:40:42;4.35;;;1.33;;
65162;SDS011;51751;55.714;37.436;2022-12-29T03:43:11;5.03;;;1.30;;
65162;SDS011;51751;55.714;37.436;2022-12-29T03:45:38;7.00;;;1.52;;
65162;SDS011;51751;55.714;37.436;2022-12-29T03:48:29;6.38;;;1.48;;
65162;SDS011;51751;55.714;37.436;2022-12-29T03:50:56;5.63;;;1.17;;
65162;SDS011;51751;55.714;37.436;2022-12-29T03:53:22;4.85;;;1.50;;
65162;SDS011;51751;55.714;37.436;2022-12-29T03:55:48;4.30;;;1.30;;
65162;SDS011;51751;55.714;37.436;2022-12-29T03:58:14;5.15;;;1.45;;
65162;SDS011;51751;55.714;37.436;2022-12-29T04:00:57;4.25;;;1.10;;
65162;SDS011;51751;55.714;37.436;2022-12-29T04:03:23;4.57;;;1.40;;
65162;SDS011;51751;55.714;37.436;2022-12-29T04:05:59;6.15;;;1.40;;
65162;SDS011;51751;55.714;37.436;2022-12-29T04:08:52;3.17;;;1.17;;
65162;SDS011;51751;55.714;37.436;2022-12-29T04:11:21;4.60;;;1.55;;
65162;SDS011;51751;55.714;37.436;2022-12-29T04:14:24;4.60;;;1.35;;
65162;SDS011;51751;55.714;37.436;2022-12-29T04:16:52;5.38;;;1.55;;
65162;SDS011;51751;55.714;37.436;2022-12-29T04:19:18;4.22;;;1.25;;
65162;SDS011;51751;55.714;37.436;2022-12-29T04:21:46;6.72;;;1.73;;
65162;SDS011;51751;55.714;37.436;2022-12-29T04:24:30;3.80;;;1.23;;
65162;SDS011;51751;55.714;37.436;2022-12-29T04:26:59;5.60;;;1.50;;
65162;SDS011;51751;55.714;37.436;2022-12-29T04:29:36;6.40;;;1.65;;
65162;SDS011;51751;55.714;37.436;2022-12-29T04:32:09;9.18;;;1.73;;
65162;SDS011;51751;55.714;37.436;2022-12-29T04:34:41;6.35;;;1.27;;
65162;SDS011;51751;55.714;37.436;2022-12-29T04:37:09;5.75;;;1.52;;
65162;SDS011;51751;55.714;37.436;2022-12-29T04:39:35;9.20;;;1.80;;
65162;SDS011;51751;55.714;37.436;2022-12-29T04:42:06;2.22;;;1.33;;
65162;SDS011;51751;55.714;37.436;2022-12-29T04:44:32;9.75;;;1.48;;
65162;SDS011;51751;55.714;37.436;2022-12-29T04:47:18;5.18;;;1.52;;
65162;SDS011;51751;55.714;37.436;2022-12-29T04:50:01;8.85;;;1.90;;
65162;SDS011;51751;55.714;37.436;2022-12-29T04:52:39;4.70;;;1.42;;
65162;SDS011;51751;55.714;37.436;2022-12-29T04:55:26;4.22;;;1.35;;
65162;SDS011;51751;55.714;37.436;2022-12-29T04:57:55;2.33;;;1.20;;
65162;SDS011;51751;55.714;37.436;2022-12-29T05:00:21;5.60;;;1.50;;
65162;SDS011;51751;55.714;37.436;2022-12-29T05:02:47;5.90;;;1.40;;
65162;SDS011;51751;55.714;37.436;2022-12-29T05:05:16;3.25;;;1.42;;
65162;SDS011;51751;55.714;37.436;2022-12-29T05:07:51;4.05;;;1.40;;
65162;SDS011;51751;55.714;37.436;2022-12-29T05:10:21;3.83;;;1.85;;
65162;SDS011;51751;55.714;37.436;2022-12-29T05:12:50;4.80;;;2.03;;
65162;SDS011;51751;55.714;37.436;2022-12-29T05:15:17;8.32;;;1.77;;
65162;SDS011;51751;55.714;37.436;2022-12-29T05:18:21;7.25;;;1.45;;
65162;SDS011;51751;55.714;37.436;2022-12-29T05:20:48;3.03;;;1.55;;
65162;SDS011;51751;55.714;37.436;2022-12-29T05:23:14;5.70;;;1.75;;
65162;SDS011;51751;55.714;37.436;2022-12-29T05:26:03;5.93;;;1.50;;
65162;SDS011;51751;55.714;37.436;2022-12-29T05:28:45;5.15;;;1.40;;
65162;SDS011;51751;55.714;37.436;2022-12-29T05:31:17;3.72;;;1.35;;
65162;SDS011;51751;55.714;37.436;2022-12-29T05:34:03;3.63;;;1.63;;
65162;SDS011;51751;55.714;37.436;2022-12-29T05:36:51;5.00;;;1.30;;
65162;SDS011;51751;55.714;37.436;2022-12-29T05:39:17;3.22;;;1.40;;
65162;SDS011;51751;55.714;37.436;2022-12-29T05:42:01;4.05;;;1.45;;
65162;SDS011;51751;55.714;37.436;2022-12-29T05:44:47;9.75;;;1.73;;
65162;SDS011;51751;55.714;37.436;2022-12-29T05:47:50;5.72;;;1.52;;
65162;SDS011;51751;55.714;37.436;2022-12-29T05:50:31;5.88;;;1.60;;
65162;SDS011;51751;55.714;37.436;2022-12-29T05:53:13;9.13;;;2.00;;
65162;SDS011;51751;55.714;37.436;2022-12-29T05:55:40;9.18;;;1.88;;
65162;SDS011;51751;55.714;37.436;2022-12-29T05:58:06;11.05;;;2.03;;
65162;SDS011;51751;55.714;37.436;2022-12-29T06:00:32;7.85;;;1.52;;
65162;SDS011;51751;55.714;37.436;2022-12-29T06:02:58;6.32;;;1.73;;
65162;SDS011;51751;55.714;37.436;2022-12-29T06:05:46;6.50;;;1.95;;
65162;SDS011;51751;55.714;37.436;2022-12-29T06:08:13;2.65;;;1.10;;
65162;SDS011;51751;55.714;37.436;2022-12-29T06:10:39;5.25;;;1.48;;
65162;SDS011;51751;55.714;37.436;2022-12-29T06:13:07;8.63;;;1.90;;
65162;SDS011;51751;55.714;37.436;2022-12-29T06:15:40;8.30;;;1.27;;
65162;SDS011;51751;55.714;37.436;2022-12-29T06:18:09;7.05;;;1.60;;
65162;SDS011;51751;55.714;37.436;2022-12-29T06:20:36;6.57;;;1.40;;
65162;SDS011;51751;55.714;37.436;2022-12-29T06:23:04;5.95;;;2.00;;
65162;SDS011;51751;55.714;37.436;2022-12-29T06:25:33;9.93;;;2.13;;
65162;SDS011;51751;55.714;37.436;2022-12-29T06:28:01;2.83;;;1.65;;
65162;SDS011;51751;55.714;37.436;2022-12-29T06:30:28;12.40;;;2.05;;
65162;SDS011;51751;55.714;37.436;2022-12-29T06:35:38;7.00;;;2.40;;
65162;SDS011;51751;55.714;37.436;2022-12-29T06:38:04;7.38;;;2.10;;
65162;SDS011;51751;55.714;37.436;2022-12-29T06:40:31;3.28;;;1.52;;
65162;SDS011;51751;55.714;37.436;2022-12-29T06:43:18;3.88;;;1.58;;
65162;SDS011;51751;55.714;37.436;2022-12-29T06:45:57;4.68;;;2.40;;
65162;SDS011;51751;55.714;37.436;2022-12-29T06:48:23;10.95;;;2.67;;
65162;SDS011;51751;55.714;37.436;2022-12-29T06:50:49;7.68;;;2.17;;
65162;SDS011;51751;55.714;37.436;2022-12-29T06:53:17;7.07;;;2.50;;
65162;SDS011;51751;55.714;37.436;2022-12-29T06:55:47;7.38;;;2.25;;
65162;SDS011;51751;55.714;37.436;2022-12-29T06:58:15;5.57;;;1.95;;
65162;SDS011;51751;55.714;37.436;2022-12-29T07:00:41;9.85;;;2.25;;
65162;SDS011;51751;55.714;37.436;2022-12-29T07:03:10;5.93;;;2.00;;
65162;SDS011;51751;55.714;37.436;2022-12-29T07:05:36;5.72;;;2.20;;
65162;SDS011;51751;55.714;37.436;2022-12-29T07:08:02;3.75;;;2.20;;
65162;SDS011;51751;55.714;37.436;2022-12-29T07:10:27;5.38;;;2.80;;
65162;SDS011;51751;55.714;37.436;2022-12-29T07:12:56;5.03;;;2.50;;
65162;SDS011;51751;55.714;37.436;2022-12-29T07:15:23;7.72;;;2.95;;
65162;SDS011;51751;55.714;37.436;2022-12-29T07:17:48;11.32;;;3.53;;
65162;SDS011;51751;55.714;37.436;2022-12-29T07:20:22;6.57;;;2.92;;
65162;SDS011;51751;55.714;37.436;2022-12-29T07:23:07;5.20;;;2.15;;
65162;SDS011;51751;55.714;37.436;2022-12-29T07:25:36;11.68;;;3.30;;
65162;SDS011;51751;55.714;37.436;2022-12-29T07:28:02;9.07;;;3.60;;
65162;SDS011;51751;55.714;37.436;2022-12-29T07:30:29;6.53;;;2.78;;
65162;SDS011;51751;55.714;37.436;2022-12-29T07:32:55;8.50;;;3.13;;
65162;SDS011;51751;55.714;37.436;2022-12-29T07:35:20;8.02;;;3.65;;
65162;SDS011;51751;55.714;37.436;2022-12-29T07:37:46;12.95;;;3.80;;
65162;SDS011;51751;55.714;37.436;2022-12-29T07:40:15;9.52;;;2.70;;
65162;SDS011;51751;55.714;37.436;2022-12-29T07:42:41;11.18;;;3.65;;
65162;SDS011;51751;55.714;37.436;2022-12-29T07:45:13;7.93;;;2.95;;
65162;SDS011;51751;55.714;37.436;2022-12-29T07:48:17;8.60;;;3.50;;
65162;SDS011;51751;55.714;37.436;2022-12-29T07:50:43;10.57;;;3.47;;
65162;SDS011;51751;55.714;37.436;2022-12-29T07:53:09;6.50;;;3.25;;
65162;SDS011;51751;55.714;37.436;2022-12-29T07:55:37;5.70;;;2.63;;
65162;SDS011;51751;55.714;37.436;2022-12-29T07:58:03;7.68;;;2.85;;
65162;SDS011;51751;55.714;37.436;2022-12-29T08:00:38;5.80;;;3.03;;
65162;SDS011;51751;55.714;37.436;2022-12-29T08:03:04;7.88;;;2.88;;
65162;SDS011;51751;55.714;37.436;2022-12-29T08:05:31;8.80;;;3.60;;
65162;SDS011;51751;55.714;37.436;2022-12-29T08:07:57;7.20;;;3.33;;
65162;SDS011;51751;55.714;37.436;2022-12-29T08:10:23;9.93;;;3.00;;
65162;SDS011;51751;55.714;37.436;2022-12-29T08:12:49;7.13;;;3.35;;
65162;SDS011;51751;55.714;37.436;2022-12-29T08:18:18;8.98;;;3.63;;
65162;SDS011;51751;55.714;37.436;2022-12-29T08:20:46;6.40;;;3.00;;
65162;SDS011;51751;55.714;37.436;2022-12-29T08:23:31;8.07;;;3.63;;
65162;SDS011;51751;55.714;37.436;2022-12-29T08:26:01;8.18;;;3.28;;
65162;SDS011;51751;55.714;37.436;2022-12-29T08:28:28;7.80;;;4.03;;
65162;SDS011;51751;55.714;37.436;2022-12-29T08:30:57;6.07;;;3.55;;
65162;SDS011;51751;55.714;37.436;2022-12-29T08:33:42;9.68;;;3.67;;
65162;SDS011;51751;55.714;37.436;2022-12-29T08:36:10;11.45;;;4.50;;
65162;SDS011;51751;55.714;37.436;2022-12-29T08:38:38;14.20;;;5.47;;
65162;SDS011;51751;55.714;37.436;2022-12-29T08:41:04;10.25;;;4.53;;
65162;SDS011;51751;55.714;37.436;2022-12-29T08:43:30;12.25;;;5.05;;
65162;SDS011;51751;55.714;37.436;2022-12-29T08:45:59;7.47;;;3.92;;
65162;SDS011;51751;55.714;37.436;2022-12-29T08:48:26;9.07;;;4.60;;
65162;SDS011;51751;55.714;37.436;2022-12-29T08:50:52;11.25;;;3.92;;
65162;SDS011;51751;55.714;37.436;2022-12-29T08:53:21;10.65;;;4.88;;
65162;SDS011;51751;55.714;37.436;2022-12-29T08:56:05;8.77;;;3.63;;
65162;SDS011;51751;55.714;37.436;2022-12-29T08:58:41;12.45;;;4.05;;
65162;SDS011;51751;55.714;37.436;2022-12-29T09:01:08;7.53;;;3.75;;
65162;SDS011;51751;55.714;37.436;2022-12-29T09:03:34;7.57;;;3.67;;
65162;SDS011;51751;55.714;37.436;2022-12-29T09:06:00;6.13;;;3.20;;
65162;SDS011;51751;55.714;37.436;2022-12-29T09:08:26;13.07;;;3.80;;
65162;SDS011;51751;55.714;37.436;2022-12-29T09:10:52;11.25;;;4.32;;
65162;SDS011;51751;55.714;37.436;2022-12-29T09:13:36;11.93;;;3.92;;
65162;SDS011;51751;55.714;37.436;2022-12-29T09:16:06;6.25;;;3.05;;
65162;SDS011;51751;55.714;37.436;2022-12-29T09:18:32;10.20;;;2.95;;
65162;SDS011;51751;55.714;37.436;2022-12-29T09:21:03;4.90;;;2.85;;
65162;SDS011;51751;55.714;37.436;2022-12-29T09:23:29;6.55;;;3.10;;
65162;SDS011;51751;55.714;37.436;2022-12-29T09:26:17;6.03;;;2.95;;
65162;SDS011;51751;55.714;37.436;2022-12-29T09:28:43;8.07;;;3.13;;
65162;SDS011;51751;55.714;37.436;2022-12-29T09:31:09;9.45;;;3.42;;
65162;SDS011;51751;55.714;37.436;2022-12-29T09:33:35;8.40;;;3.47;;
65162;SDS011;51751;55.714;37.436;2022-12-29T09:36:01;6.72;;;3.78;;
65162;SDS011;51751;55.714;37.436;2022-12-29T09:38:28;6.30;;;3.38;;
65162;SDS011;51751;55.714;37.436;2022-12-29T09:41:18;6.93;;;3.50;;
65162;SDS011;51751;55.714;37.436;2022-12-29T09:44:13;8.68;;;3.22;;
65162;SDS011;51751;55.714;37.436;2022-12-29T09:47:00;9.18;;;3.97;;
65162;SDS011;51751;55.714;37.436;2022-12-29T09:52:15;7.78;;;3.70;;
65162;SDS011;51751;55.714;37.436;2022-12-29T09:54:57;10.88;;;4.30;;
65162;SDS011;51751;55.714;37.436;2022-12-29T09:57:32;9.07;;;5.28;;
65162;SDS011;51751;55.714;37.436;2022-12-29T10:00:05;11.30;;;4.57;;
65162;SDS011;51751;55.714;37.436;2022-12-29T10:02:40;13.15;;;4.55;;
65162;SDS011;51751;55.714;37.436;2022-12-29T10:05:13;5.70;;;3.70;;
65162;SDS011;51751;55.714;37.436;2022-12-29T10:10:38;6.53;;;4.00;;
65162;SDS011;51751;55.714;37.436;2022-12-29T10:15:56;23.92;;;4.10;;
65162;SDS011;51751;55.714;37.436;2022-12-29T10:18:54;6.85;;;3.75;;
65162;SDS011;51751;55.714;37.436;2022-12-29T10:24:13;6.90;;;4.00;;
65162;SDS011;51751;55.714;37.436;2022-12-29T10:26:43;10.02;;;4.50;;
65162;SDS011;51751;55.714;37.436;2022-12-29T10:29:19;8.57;;;4.13;;
65162;SDS011;51751;55.714;37.436;2022-12-29T10:31:50;7.85;;;4.28;;
65162;SDS011;51751;55.714;37.436;2022-12-29T10:34:24;16.30;;;4.55;;
65162;SDS011;51751;55.714;37.436;2022-12-29T10:39:46;7.50;;;3.38;;
65162;SDS011;51751;55.714;37.436;2022-12-29T10:45:03;5.93;;;3.60;;
65162;SDS011;51751;55.714;37.436;2022-12-29T10:47:37;7.15;;;3.63;;
65162;SDS011;51751;55.714;37.436;2022-12-29T10:50:05;9.88;;;3.80;;
65162;SDS011;51751;55.714;37.436;2022-12-29T10:52:31;8.93;;;3.55;;
65162;SDS011;51751;55.714;37.436;2022-12-29T10:55:00;7.57;;;3.67;;
65162;SDS011;51751;55.714;37.436;2022-12-29T10:57:31;6.22;;;3.67;;
65162;SDS011;51751;55.714;37.436;2022-12-29T10:59:59;8.18;;;3.80;;
65162;SDS011;51751;55.714;37.436;2022-12-29T11:07:36;9.43;;;3.78;;
65162;SDS011;51751;55.714;37.436;2022-12-29T11:13:10;11.55;;;3.72;;
65162;SDS011;51751;55.714;37.436;2022-12-29T11:15:42;10.38;;;3.88;;
65162;SDS011;51751;55.714;37.436;2022-12-29T11:18:52;10.82;;;5.13;;
65162;SDS011;51751;55.714;37.436;2022-12-29T11:21:03;12.43;;;5.38;;
65162;SDS011;51751;55.714;37.436;2022-12-29T11:23:32;10.80;;;5.55;;
65162;SDS011;51751;55.714;37.436;2022-12-29T11:26:13;11.32;;;5.63;;
65162;SDS011;51751;55.714;37.436;2022-12-29T11:28:47;8.45;;;5.35;;
65162;SDS011;51751;55.714;37.436;2022-12-29T11:31:29;8.85;;;5.40;;
65162;SDS011;51751;55.714;37.436;2022-12-29T11:33:55;7.85;;;4.90;;
65162;SDS011;51751;55.714;37.436;2022-12-29T11:36:24;12.85;;;5.20;;
65162;SDS011;51751;55.714;37.436;2022-12-29T11:38:53;12.57;;;5.30;;
65162;SDS011;51751;55.714;37.436;2022-12-29T11:41:29;13.32;;;4.35;;
65162;SDS011;51751;55.714;37.436;2022-12-29T11:44:00;8.23;;;4.03;;
65162;SDS011;51751;55.714;37.436;2022-12-29T11:46:36;11.65;;;4.55;;
65162;SDS011;51751;55.714;37.436;2022-12-29T11:49:10;12.00;;;5.18;;
65162;SDS011;51751;55.714;37.436;2022-12-29T11:51:57;7.22;;;4.10;;
65162;SDS011;51751;55.714;37.436;2022-12-29T11:54:45;9.88;;;4.50;;
65162;SDS011;51751;55.714;37.436;2022-12-29T11:57:15;8.80;;;4.50;;
65162;SDS011;51751;55.714;37.436;2022-12-29T11:59:54;9.07;;;4.32;;
65162;SDS011;51751;55.714;37.436;2022-12-29T12:02:47;8.18;;;4.40;;
65162;SDS011;51751;55.714;37.436;2022-12-29T12:10:37;9.02;;;4.80;;
65162;SDS011;51751;55.714;37.436;2022-12-29T12:16:19;9.82;;;5.10;;
65162;SDS011;51751;55.714;37.436;2022-12-29T12:18:47;10.93;;;4.90;;
65162;SDS011;51751;55.714;37.436;2022-12-29T12:21:20;9.82;;;4.78;;
65162;SDS011;51751;55.714;37.436;2022-12-29T12:24:11;11.35;;;4.82;;
65162;SDS011;51751;55.714;37.436;2022-12-29T12:29:50;18.38;;;4.82;;
65162;SDS011;51751;55.714;37.436;2022-12-29T12:32:42;11.25;;;4.85;;
65162;SDS011;51751;55.714;37.436;2022-12-29T12:35:15;10.93;;;5.05;;
65162;SDS011;51751;55.714;37.436;2022-12-29T12:55:30;8.27;;;4.28;;
65162;SDS011;51751;55.714;37.436;2022-12-29T12:58:27;10.70;;;4.85;;
65162;SDS011;51751;55.714;37.436;2022-12-29T13:06:37;16.33;;;5.83;;
65162;SDS011;51751;55.714;37.436;2022-12-29T13:17:54;15.43;;;6.85;;
65162;SDS011;51751;55.714;37.436;2022-12-29T13:20:47;16.58;;;8.20;;
65162;SDS011;51751;55.714;37.436;2022-12-29T13:31:39;16.10;;;7.15;;
65162;SDS011;51751;55.714;37.436;2022-12-29T13:34:47;20.98;;;7.60;;
65162;SDS011;51751;55.714;37.436;2022-12-29T13:37:20;15.52;;;7.70;;
65162;SDS011;51751;55.714;37.436;2022-12-29T13:39:51;19.40;;;10.45;;
65162;SDS011;51751;55.714;37.436;2022-12-29T13:42:18;19.73;;;8.73;;
65162;SDS011;51751;55.714;37.436;2022-12-29T13:44:46;16.42;;;7.32;;
65162;SDS011;51751;55.714;37.436;2022-12-29T13:50:01;15.73;;;7.93;;
65162;SDS011;51751;55.714;37.436;2022-12-29T13:55:16;18.20;;;7.75;;
65162;SDS011;51751;55.714;37.436;2022-12-29T13:57:49;15.82;;;8.30;;
65162;SDS011;51751;55.714;37.436;2022-12-29T14:00:20;25.50;;;12.43;;
65162;SDS011;51751;55.714;37.436;2022-12-29T14:02:57;19.40;;;9.25;;
65162;SDS011;51751;55.714;37.436;2022-12-29T14:05:27;25.90;;;10.40;;
65162;SDS011;51751;55.714;37.436;2022-12-29T14:08:01;18.65;;;9.63;;
65162;SDS011;51751;55.714;37.436;2022-12-29T14:15:38;24.88;;;9.23;;
65162;SDS011;51751;55.714;37.436;2022-12-29T14:18:16;17.42;;;8.95;;
65162;SDS011;51751;55.714;37.436;2022-12-29T14:23:53;21.77;;;9.10;;
65162;SDS011;51751;55.714;37.436;2022-12-29T14:29:41;21.30;;;8.80;;
65162;SDS011;51751;55.714;37.436;2022-12-29T14:34:52;18.25;;;8.63;;
65162;SDS011;51751;55.714;37.436;2022-12-29T14:37:39;19.77;;;6.95;;
65162;SDS011;51751;55.714;37.436;2022-12-29T14:40:17;19.13;;;7.25;;
65162;SDS011;51751;55.714;37.436;2022-12-29T14:42:45;18.83;;;7.32;;
65162;SDS011;51751;55.714;37.436;2022-12-29T14:47:49;13.57;;;6.70;;
65162;SDS011;51751;55.714;37.436;2022-12-29T14:50:17;16.42;;;6.85;;
65162;SDS011;51751;55.714;37.436;2022-12-29T14:52:54;18.58;;;7.93;;
65162;SDS011;51751;55.714;37.436;2022-12-29T14:55:30;14.88;;;7.60;;
65162;SDS011;51751;55.714;37.436;2022-12-29T14:58:05;15.02;;;7.22;;
65162;SDS011;51751;55.714;37.436;2022-12-29T15:00:41;21.50;;;7.57;;
65162;SDS011;51751;55.714;37.436;2022-12-29T15:06:07;15.75;;;7.72;;
65162;SDS011;51751;55.714;37.436;2022-12-29T15:08:43;24.10;;;9.77;;
65162;SDS011;51751;55.714;37.436;2022-12-29T15:11:20;18.00;;;8.40;;
65162;SDS011;51751;55.714;37.436;2022-12-29T15:13:50;18.17;;;8.38;;
65162;SDS011;51751;55.714;37.436;2022-12-29T15:16:21;20.58;;;8.30;;
65162;SDS011;51751;55.714;37.436;2022-12-29T15:18:49;18.08;;;9.55;;
65162;SDS011;51751;55.714;37.436;2022-12-29T15:21:15;24.48;;;8.43;;
65162;SDS011;51751;55.714;37.436;2022-12-29T15:23:42;21.00;;;9.30;;
65162;SDS011;51751;55.714;37.436;2022-12-29T15:26:10;16.05;;;7.85;;
65162;SDS011;51751;55.714;37.436;2022-12-29T15:28:38;19.50;;;7.97;;
65162;SDS011;51751;55.714;37.436;2022-12-29T15:31:12;18.60;;;7.82;;
65162;SDS011;51751;55.714;37.436;2022-12-29T15:33:47;19.33;;;8.30;;
65162;SDS011;51751;55.714;37.436;2022-12-29T15:36:18;17.55;;;7.82;;
65162;SDS011;51751;55.714;37.436;2022-12-29T15:38:54;13.73;;;7.13;;
65162;SDS011;51751;55.714;37.436;2022-12-29T15:44:45;22.40;;;10.20;;
65162;SDS011;51751;55.714;37.436;2022-12-29T15:47:21;14.50;;;8.48;;
65162;SDS011;51751;55.714;37.436;2022-12-29T15:49:50;19.90;;;9.98;;
65162;SDS011;51751;55.714;37.436;2022-12-29T15:52:21;18.23;;;9.68;;
65162;SDS011;51751;55.714;37.436;2022-12-29T15:54:48;21.88;;;9.80;;
65162;SDS011;51751;55.714;37.436;2022-12-29T15:59:52;21.88;;;8.73;;
65162;SDS011;51751;55.714;37.436;2022-12-29T16:02:20;17.85;;;8.82;;
65162;SDS011;51751;55.714;37.436;2022-12-29T16:04:48;18.85;;;8.80;;
65162;SDS011;51751;55.714;37.436;2022-12-29T16:09:55;20.45;;;8.27;;
65162;SDS011;51751;55.714;37.436;2022-12-29T16:12:34;18.15;;;9.07;;
65162;SDS011;51751;55.714;37.436;2022-12-29T16:15:04;29.08;;;11.60;;
65162;SDS011;51751;55.714;37.436;2022-12-29T16:17:47;21.55;;;8.70;;
65162;SDS011;51751;55.714;37.436;2022-12-29T16:20:20;19.42;;;8.48;;
65162;SDS011;51751;55.714;37.436;2022-12-29T16:22:49;23.85;;;11.95;;
65162;SDS011;51751;55.714;37.436;2022-12-29T16:25:35;25.67;;;11.68;;
65162;SDS011;51751;55.714;37.436;2022-12-29T16:28:22;24.30;;;10.07;;
65162;SDS011;51751;55.714;37.436;2022-12-29T16:31:16;24.40;;;10.23;;
65162;SDS011;51751;55.714;37.436;2022-12-29T16:36:22;29.92;;;12.95;;
65162;SDS011;51751;55.714;37.436;2022-12-29T16:39:27;27.02;;;12.65;;
65162;SDS011;51751;55.714;37.436;2022-12-29T16:48:16;25.00;;;11.02;;
65162;SDS011;51751;55.714;37.436;2022-12-29T16:50:47;26.23;;;10.38;;
65162;SDS011;51751;55.714;37.436;2022-12-29T16:55:46;28.70;;;13.40;;
65162;SDS011;51751;55.714;37.436;2022-12-29T16:58:16;27.50;;;12.13;;
65162;SDS011;51751;55.714;37.436;2022-12-29T17:00:45;26.15;;;9.68;;
65162;SDS011;51751;55.714;37.436;2022-12-29T17:03:12;26.98;;;12.38;;
65162;SDS011;51751;55.714;37.436;2022-12-29T17:05:39;24.27;;;10.48;;
65162;SDS011;51751;55.714;37.436;2022-12-29T17:08:18;27.58;;;9.52;;
65162;SDS011;51751;55.714;37.436;2022-12-29T17:10:53;23.95;;;10.10;;
65162;SDS011;51751;55.714;37.436;2022-12-29T17:13:39;24.88;;;9.52;;
65162;SDS011;51751;55.714;37.436;2022-12-29T17:16:05;26.85;;;10.43;;
65162;SDS011;51751;55.714;37.436;2022-12-29T17:18:54;24.58;;;10.15;;
65162;SDS011;51751;55.714;37.436;2022-12-29T17:21:26;24.08;;;10.45;;
65162;SDS011;51751;55.714;37.436;2022-12-29T17:23:55;24.92;;;10.30;;
65162;SDS011;51751;55.714;37.436;2022-12-29T17:26:27;22.55;;;10.25;;
65162;SDS011;51751;55.714;37.436;2022-12-29T17:28:52;21.02;;;8.68;;
65162;SDS011;51751;55.714;37.436;2022-12-29T17:31:18;22.77;;;10.50;;
65162;SDS011;51751;55.714;37.436;2022-12-29T17:33:56;21.35;;;9.27;;
65162;SDS011;51751;55.714;37.436;2022-12-29T17:36:26;24.55;;;9.88;;
65162;SDS011;51751;55.714;37.436;2022-12-29T17:39:10;24.30;;;9.68;;
65162;SDS011;51751;55.714;37.436;2022-12-29T17:41:39;21.67;;;9.07;;
65162;SDS011;51751;55.714;37.436;2022-12-29T17:44:25;24.17;;;9.73;;
65162;SDS011;51751;55.714;37.436;2022-12-29T17:46:53;23.20;;;9.20;;
65162;SDS011;51751;55.714;37.436;2022-12-29T17:49:19;22.35;;;9.63;;
65162;SDS011;51751;55.714;37.436;2022-12-29T17:51:46;22.83;;;9.52;;
65162;SDS011;51751;55.714;37.436;2022-12-29T17:54:17;21.38;;;8.98;;
65162;SDS011;51751;55.714;37.436;2022-12-29T17:56:50;21.65;;;8.73;;
65162;SDS011;51751;55.714;37.436;2022-12-29T17:59:16;23.48;;;9.75;;
65162;SDS011;51751;55.714;37.436;2022-12-29T18:01:43;24.08;;;9.65;;